Terminal Aerodrome Forecast
Issued by NWS Mt. Holly, NJ

Home | Current Version | Previous Version | Text Only | Print | Product List | Glossary On
Versions: 1 2 3 4 5 6 7 8 9 10 11 12 13 14 15 16 17 18 19
000
FTUS41 KPHI 261813 AAA
TAFABE
TAF AMD
KABE 261813Z 2618/2718 00000KT 2SM BR OVC008
     FM262000 21010KT 4SM BR OVC010
     FM262300 23008KT P6SM -SHRA SCT015 BKN025
     FM270100 30010KT 4SM -SHRA BR OVC015
     FM270500 32010KT P6SM -SHRA BKN025 BKN040
     FM270800 31006KT 4SM -SHRA OVC010
     FM271200 34007KT P6SM BKN050 BKN100=

USA.gov is the U.S. government's official web portal to all federal, state and local government web resources and services.